Terminal Aerodrome Forecast
Issued by NWS Chicago, IL

Home | Current Version | Previous Version | Graphics & Text | Print | Product List | Glossary On
Versions: 1 2 3 4 5 6 7 8 9 10 11 12 13 14 15 16 17 18 19 20 21 22 23 24 25
000
FTUS43 KLOT 061136
TAFRFD
TAF
KRFD 061136Z 0612/0712 13004KT 1SM BR OVC002
      TEMPO 0612/0615 1/2SM FG
     FM061500 25005KT 3SM BR OVC004
     FM061900 26012G19KT 4SM BR BKN008
     FM062100 27012G18KT P6SM FEW030 SCT250=

USA.gov is the U.S. government's official web portal to all federal, state and local government web resources and services.